createdAt,value
2019-04-22T00:03:06.818Z,48.48
2019-04-22T00:09:30.938Z,48.88
2019-04-22T00:15:56.518Z,49.35
2019-04-22T00:39:44.690Z,50.40
2019-04-22T00:46:31.816Z,50.49
2019-04-22T00:49:49.029Z,50.64
2019-04-22T00:52:12.466Z,50.76
2019-04-22T01:25:56.621Z,52.40
2019-04-22T01:59:25.693Z,53.83
2019-04-22T02:02:49.295Z,53.63
2019-04-22T02:09:17.707Z,54.65
2019-04-22T02:26:01.168Z,54.29
2019-04-22T02:32:59.069Z,54.44
2019-04-22T02:46:42.986Z,54.91
2019-04-22T03:06:16.418Z,55.09
2019-04-22T03:25:53.570Z,55.42
2019-04-22T03:32:33.457Z,55.51
2019-04-22T03:39:04.192Z,56.14
2019-04-22T03:48:38.385Z,56.67
2019-04-22T03:55:15.736Z,56.51
2019-04-22T04:04:59.459Z,56.85
2019-04-22T05:34:29.168Z,53.33
2019-04-22T05:40:48.454Z,52.29
2019-04-22T05:54:54.917Z,51.03
2019-04-22T06:04:05.380Z,49.87
2019-04-22T06:10:48.628Z,49.29
2019-04-22T06:27:21.908Z,47.78
2019-04-22T06:29:55.328Z,47.60
2019-04-22T06:32:40.121Z,46.99
2019-04-22T06:39:12.915Z,46.82
2019-04-22T06:44:22.642Z,46.09
2019-04-22T06:46:52.351Z,45.82
2019-04-22T06:49:31.897Z,45.75
2019-04-22T06:52:05.998Z,44.86
2019-04-22T06:54:35.972Z,44.69
2019-04-22T06:57:06.183Z,40.34
2019-04-22T06:59:53.700Z,43.67
2019-04-22T07:02:54.207Z,43.26
2019-04-22T07:05:17.970Z,37.65
2019-04-22T07:07:51.908Z,40.20
2019-04-22T07:10:28.534Z,40.81
2019-04-22T07:12:52.307Z,39.96
2019-04-22T07:15:42.392Z,40.46
2019-04-22T07:21:27.705Z,38.92
2019-04-22T07:26:59.839Z,34.05
2019-04-22T07:29:35.318Z,39.31
2019-04-22T07:32:07.864Z,38.59
2019-04-22T07:34:50.330Z,38.39
2019-04-22T07:39:45.780Z,34.85
2019-04-22T07:42:19.249Z,37.69
2019-04-22T07:44:53.190Z,36.64
2019-04-22T07:47:29.542Z,36.82
2019-04-22T07:49:51.042Z,35.44
2019-04-22T07:52:24.592Z,35.28
2019-04-22T07:54:59.573Z,34.38
2019-04-22T07:57:31.101Z,33.44
2019-04-22T08:00:04.146Z,34.54
2019-04-22T08:02:32.746Z,33.97
2019-04-22T08:05:05.441Z,34.17
2019-04-22T08:10:17.219Z,34.32
2019-04-22T08:13:05.401Z,34.17
2019-04-22T08:15:41.500Z,34.17
2019-04-22T08:18:15.607Z,32.92
2019-04-22T08:20:58.455Z,33.07
2019-04-22T08:23:37.930Z,33.02
2019-04-22T08:25:47.450Z,29.75
2019-04-22T08:31:02.043Z,29.88
2019-04-22T08:33:38.213Z,31.75
2019-04-22T13:10:51.606Z,30.86
2019-04-22T13:29:39.270Z,23.90
2019-04-22T13:32:13.163Z,23.64
2019-04-22T13:34:55.906Z,23.63
2019-04-22T13:43:38.806Z,24.15
2019-04-22T13:45:19.870Z,24.07
2019-04-22T13:48:11.480Z,22.78
2019-04-22T13:59:10.347Z,23.04
2019-04-22T14:05:10.586Z,23.16
2019-04-22T14:07:44.458Z,22.98
2019-04-22T14:10:16.500Z,23.25
2019-04-22T14:12:48.772Z,22.77
2019-04-22T14:15:43.862Z,23.24
2019-04-22T14:18:18.960Z,23.04
2019-04-22T14:21:02.859Z,23.09
2019-04-22T14:23:40.525Z,22.77
2019-04-22T14:26:27.105Z,23.12
2019-04-22T14:29:31.399Z,23.20
2019-04-22T14:32:31.292Z,22.47
2019-04-22T14:35:04.964Z,23.18
2019-04-22T14:38:01.521Z,23.33
2019-04-22T14:40:51.906Z,23.36
2019-04-22T14:43:59.948Z,22.78
2019-04-22T14:46:39.002Z,22.92
2019-04-22T14:49:34.100Z,23.34
2019-04-22T14:52:05.253Z,22.52
2019-04-22T14:54:31.309Z,23.25
2019-04-22T14:56:52.042Z,22.80
2019-04-22T14:59:22.878Z,23.11
2019-04-22T15:01:58.142Z,23.33
2019-04-22T15:04:35.108Z,23.23
2019-04-22T15:07:49.904Z,23.16
2019-04-22T15:09:52.347Z,23.50
2019-04-22T15:12:56.569Z,23.31
2019-04-22T15:16:15.944Z,23.56
2019-04-22T15:18:55.769Z,23.53
2019-04-22T15:21:27.217Z,23.60
2019-04-22T15:23:58.848Z,23.16
2019-04-22T15:26:38.218Z,23.47
2019-04-22T15:29:11.301Z,23.45
2019-04-22T15:31:51.357Z,22.96
2019-04-22T15:34:20.746Z,23.16
2019-04-22T15:36:58.082Z,22.84
2019-04-22T15:39:33.927Z,23.40
2019-04-22T15:42:19.937Z,23.44
2019-04-22T15:44:48.043Z,23.55
2019-04-22T15:47:18.860Z,23.70
2019-04-22T15:53:41.752Z,23.77
2019-04-22T15:56:12.549Z,24.03
2019-04-22T15:58:41.986Z,23.91
2019-04-22T16:01:19.305Z,24.21
2019-04-22T16:03:44.754Z,25.73
2019-04-22T16:06:26.183Z,26.02
2019-04-22T16:09:33.184Z,25.58
2019-04-22T16:12:27.200Z,25.06
2019-04-22T16:14:53.522Z,24.52
2019-04-22T16:27:36.334Z,24.55
2019-04-22T16:30:13.111Z,24.91
2019-04-22T16:36:30.957Z,25.98
2019-04-22T16:42:58.146Z,26.65
2019-04-22T16:45:29.745Z,26.05
2019-04-22T16:48:04.068Z,26.02
2019-04-22T16:50:36.525Z,26.91
2019-04-22T16:53:06.162Z,26.50
2019-04-22T16:58:16.652Z,27.17
2019-04-22T17:00:49.777Z,26.62
2019-04-22T17:06:35.456Z,26.69
2019-04-22T17:09:14.197Z,27.16
2019-04-22T17:11:41.928Z,26.90
2019-04-22T17:14:30.511Z,27.47
2019-04-22T17:19:51.398Z,27.27
2019-04-22T17:26:03.187Z,28.06
2019-04-22T17:28:33.465Z,28.06
2019-04-22T17:31:04.679Z,28.21
2019-04-22T17:33:42.763Z,28.00
2019-04-22T17:36:09.358Z,28.71
2019-04-22T17:38:52.014Z,28.71
2019-04-22T17:41:33.115Z,29.06
2019-04-22T17:44:21.779Z,29.06
2019-04-22T17:46:55.029Z,29.48
2019-04-22T17:49:48.615Z,29.31
2019-04-22T17:52:21.116Z,30.53
2019-04-22T17:54:50.279Z,29.51
2019-04-22T17:57:24.059Z,30.13
2019-04-22T17:59:53.953Z,30.01
2019-04-22T18:02:24.638Z,31.84
2019-04-22T18:04:46.005Z,30.32
2019-04-22T18:07:35.570Z,31.67
2019-04-22T18:12:53.793Z,31.50
2019-04-22T18:15:22.767Z,31.21
2019-04-22T18:17:55.688Z,32.36
2019-04-22T18:20:20.603Z,31.61
2019-04-22T18:22:41.742Z,31.91
2019-04-22T18:25:17.644Z,33.26
2019-04-22T18:28:00.714Z,32.79
2019-04-22T18:30:24.278Z,35.01
2019-04-22T18:33:19.068Z,34.25
2019-04-22T18:35:46.799Z,32.71
2019-04-22T18:38:44.378Z,34.53
2019-04-22T18:41:05.010Z,33.20
2019-04-22T18:43:42.437Z,33.67
2019-04-22T18:46:26.968Z,33.77
2019-04-22T18:49:37.373Z,33.87
2019-04-22T18:52:47.030Z,35.04
2019-04-22T18:58:25.566Z,34.35
2019-04-22T19:09:12.016Z,36.59
2019-04-22T19:24:18.573Z,36.90
2019-04-22T19:26:59.102Z,36.83
2019-04-22T19:30:30.058Z,37.35
2019-04-22T19:33:02.854Z,37.89
2019-04-22T19:36:20.427Z,37.55
2019-04-22T19:38:30.094Z,40.41
2019-04-22T19:42:14.470Z,41.76
2019-04-22T19:44:50.737Z,40.17
2019-04-22T19:47:30.599Z,44.36
2019-04-22T19:50:16.392Z,43.84
2019-04-22T19:52:43.406Z,48.19
2019-04-22T19:55:16.830Z,42.97
2019-04-22T19:57:48.501Z,43.26
2019-04-22T20:00:37.477Z,44.46
2019-04-22T20:03:46.391Z,43.46
2019-04-22T20:06:34.981Z,49.21
2019-04-22T20:09:13.933Z,47.06
2019-04-22T20:11:46.541Z,48.16
2019-04-22T20:14:18.071Z,45.55
2019-04-22T20:16:43.830Z,46.94
2019-04-22T20:19:33.170Z,50.04
2019-04-22T20:22:07.543Z,44.61
2019-04-22T20:24:29.179Z,45.05
2019-04-22T20:27:18.706Z,51.47
2019-04-22T20:29:54.353Z,49.40
2019-04-22T20:32:21.825Z,47.56
2019-04-22T20:35:03.000Z,46.73
2019-04-22T20:37:35.435Z,48.48
2019-04-22T20:40:05.460Z,45.91
2019-04-22T20:42:48.916Z,46.21
2019-04-22T20:45:22.848Z,46.11
2019-04-22T20:47:42.592Z,46.34
2019-04-22T20:50:25.021Z,45.34
2019-04-22T20:53:11.587Z,45.62
2019-04-22T20:55:41.908Z,43.99
2019-04-22T20:58:18.024Z,41.94
2019-04-22T21:00:56.937Z,41.88
2019-04-22T21:03:22.341Z,41.49
2019-04-22T21:05:52.578Z,40.60
2019-04-22T21:08:38.886Z,40.70
2019-04-22T21:10:57.848Z,40.58
2019-04-22T21:13:28.070Z,39.76
2019-04-22T21:16:08.983Z,40.53
2019-04-22T21:18:32.863Z,40.49
2019-04-22T21:21:16.542Z,39.95
2019-04-22T21:23:33.949Z,40.64
2019-04-22T21:26:13.788Z,40.43
2019-04-22T21:28:42.953Z,39.90
2019-04-22T21:31:19.314Z,40.30
2019-04-22T21:33:47.160Z,40.30
2019-04-22T21:36:26.408Z,40.07
2019-04-22T21:38:52.010Z,40.31
2019-04-22T21:41:20.404Z,40.48
2019-04-22T21:43:54.766Z,40.40
2019-04-22T21:46:23.223Z,40.56
2019-04-22T21:48:57.817Z,40.52
2019-04-22T21:51:32.837Z,40.49
2019-04-22T21:54:06.789Z,40.69
2019-04-22T21:59:07.968Z,40.78
2019-04-22T22:01:52.561Z,40.58
2019-04-22T22:04:17.432Z,40.62
2019-04-22T22:06:38.010Z,40.73
2019-04-22T22:09:22.148Z,40.87
2019-04-22T22:11:44.497Z,41.26
2019-04-22T22:14:18.069Z,41.16
2019-04-22T22:16:43.531Z,41.06
2019-04-22T22:19:17.803Z,41.22
2019-04-22T22:24:22.915Z,41.32
2019-04-22T22:26:57.162Z,41.56
2019-04-22T22:29:36.933Z,41.62
2019-04-22T22:32:02.712Z,42.79
2019-04-22T22:34:43.519Z,41.86
2019-04-22T22:36:53.011Z,42.35
2019-04-22T22:39:23.144Z,42.82
2019-04-22T22:41:44.014Z,43.16
2019-04-22T22:44:21.144Z,42.26
2019-04-22T22:47:03.600Z,43.81
2019-04-22T22:49:45.896Z,42.41
2019-04-22T22:52:31.093Z,42.76
2019-04-22T22:54:39.242Z,44.51
2019-04-22T22:57:19.510Z,42.87
2019-04-22T22:59:44.121Z,43.27
2019-04-22T23:02:12.712Z,42.84
2019-04-22T23:04:48.847Z,44.25
2019-04-22T23:07:22.746Z,44.18
2019-04-22T23:09:48.753Z,43.27
2019-04-22T23:12:34.613Z,44.92
2019-04-22T23:14:49.821Z,45.26
2019-04-22T23:17:09.317Z,45.39
2019-04-22T23:19:40.463Z,46.17
2019-04-22T23:22:20.714Z,44.16
2019-04-22T23:24:59.909Z,44.58
2019-04-22T23:27:44.491Z,45.17
2019-04-22T23:30:25.221Z,46.64
2019-04-22T23:33:05.845Z,48.53
2019-04-22T23:35:52.889Z,45.51
2019-04-22T23:38:35.771Z,46.84
2019-04-22T23:41:05.642Z,46.28
2019-04-22T23:43:42.380Z,46.28
2019-04-22T23:46:04.309Z,49.34
2019-04-22T23:48:29.450Z,48.78
2019-04-22T23:51:09.364Z,50.20
2019-04-22T23:53:57.260Z,47.37
2019-04-22T23:56:07.882Z,46.67
